Time;durP1;ratioP1;P1;durP2;ratioP2;P2;SDS_P1;SDS_P2;PMS_P1;PMS_P2;Temp;Humidity;BMP_temperature;BMP_pressure;BME280_temperature;BME280_humidity;BME280_pressure;Samples;Min_cycle;Max_cycle;Signal;HPM_P1;HPM_P2
2022/08/30 00:01:03;;;;;;;6.70;4.85;;;;;;;;;;5033424;28;20060;-69
2022/08/30 00:03:39;;;;;;;7.10;5.55;;;;;;;;;;5018702;28;20511;-68
2022/08/30 00:06:08;;;;;;;6.55;5.88;;;;;;;;;;5033559;28;20416;-68
2022/08/30 00:08:35;;;;;;;6.25;5.32;;;;;;;;;;5033405;28;20475;-68
2022/08/30 00:11:04;;;;;;;8.43;5.55;;;;;;;;;;5033291;28;20053;-68
2022/08/30 00:13:30;;;;;;;6.63;5.20;;;;;;;;;;5033617;28;20064;-69
2022/08/30 00:15:57;;;;;;;8.38;5.40;;;;;;;;;;5033615;28;20053;-68
2022/08/30 00:18:24;;;;;;;6.80;5.55;;;;;;;;;;5033164;28;20053;-68
2022/08/30 00:20:51;;;;;;;7.05;5.57;;;;;;;;;;5033106;28;20090;-68
2022/08/30 00:23:18;;;;;;;13.55;5.53;;;;;;;;;;5033382;28;20057;-68
2022/08/30 00:25:45;;;;;;;8.40;5.82;;;;;;;;;;5033024;28;20050;-68
2022/08/30 00:28:12;;;;;;;6.78;5.40;;;;;;;;;;5032883;28;20428;-68
2022/08/30 00:30:40;;;;;;;8.45;5.68;;;;;;;;;;5032814;28;20049;-68
2022/08/30 00:33:07;;;;;;;6.97;5.57;;;;;;;;;;5032894;28;20072;-69
2022/08/30 00:35:34;;;;;;;6.25;5.20;;;;;;;;;;5033091;28;20103;-68
2022/08/30 00:38:01;;;;;;;9.25;5.78;;;;;;;;;;5032879;28;20065;-68
2022/08/30 00:40:29;;;;;;;6.72;5.90;;;;;;;;;;5015734;28;20075;-68
2022/08/30 00:42:57;;;;;;;6.93;5.50;;;;;;;;;;5032716;28;20144;-69
2022/08/30 00:45:39;;;;;;;;;;;;;;;;;;5017948;28;20114;-69
2022/08/30 00:48:06;;;;;;;7.10;6.20;;;;;;;;;;5032952;28;19928;-68
2022/08/30 00:50:37;;;;;;;7.20;5.28;;;;;;;;;;5032809;28;20049;-69
2022/08/30 00:53:06;;;;;;;5.72;5.13;;;;;;;;;;5032755;28;20060;-68
2022/08/30 00:55:33;;;;;;;6.97;6.03;;;;;;;;;;5032391;28;20124;-68
2022/08/30 00:58:05;;;;;;;7.70;6.22;;;;;;;;;;5031644;28;20045;-68
2022/08/30 01:00:32;;;;;;;6.82;6.13;;;;;;;;;;5032330;28;20053;-68
2022/08/30 01:02:59;;;;;;;8.23;5.85;;;;;;;;;;5015276;28;20132;-68
2022/08/30 01:05:25;;;;;;;7.45;6.05;;;;;;;;;;5032499;28;20132;-68
2022/08/30 01:07:52;;;;;;;7.38;5.68;;;;;;;;;;4998646;28;20049;-68
2022/08/30 01:10:19;;;;;;;6.40;5.57;;;;;;;;;;5032162;28;20053;-68
2022/08/30 01:12:46;;;;;;;11.65;7.05;;;;;;;;;;5032370;28;20420;-68
2022/08/30 01:15:14;;;;;;;7.20;6.50;;;;;;;;;;5014793;28;20046;-68
2022/08/30 01:17:43;;;;;;;8.27;5.90;;;;;;;;;;5015073;28;20045;-67
2022/08/30 01:20:13;;;;;;;7.55;6.18;;;;;;;;;;5014811;28;20045;-68
2022/08/30 01:22:48;;;;;;;7.10;5.85;;;;;;;;;;5014969;28;20052;-68
2022/08/30 01:25:24;;;;;;;8.25;6.50;;;;;;;;;;5032067;28;20103;-68
2022/08/30 01:27:54;;;;;;;7.97;6.15;;;;;;;;;;4999146;28;20049;-68
2022/08/30 01:30:22;;;;;;;10.20;6.35;;;;;;;;;;4998983;28;20068;-68
2022/08/30 01:32:51;;;;;;;7.32;5.72;;;;;;;;;;5032516;28;20424;-68
2022/08/30 01:35:19;;;;;;;10.02;7.63;;;;;;;;;;5031972;28;20179;-69
2022/08/30 01:37:45;;;;;;;9.15;6.72;;;;;;;;;;5031867;28;20468;-66
2022/08/30 01:40:13;;;;;;;8.18;6.97;;;;;;;;;;5031680;28;20060;-67
2022/08/30 01:42:40;;;;;;;7.25;6.55;;;;;;;;;;5031897;28;20555;-67
2022/08/30 01:45:08;;;;;;;7.40;5.97;;;;;;;;;;5032199;28;20103;-66
2022/08/30 01:47:35;;;;;;;10.30;6.38;;;;;;;;;;5031961;28;20053;-66
2022/08/30 01:50:03;;;;;;;7.00;6.30;;;;;;;;;;5031947;28;20049;-66
2022/08/30 01:52:30;;;;;;;10.10;6.30;;;;;;;;;;5032265;28;20456;-66
2022/08/30 01:54:57;;;;;;;8.88;6.30;;;;;;;;;;5031640;28;20045;-66
2022/08/30 01:57:25;;;;;;;6.30;5.70;;;;;;;;;;5031699;28;20046;-66
2022/08/30 01:59:52;;;;;;;8.13;6.20;;;;;;;;;;5031364;28;20081;-66
2022/08/30 02:02:23;;;;;;;7.90;5.75;;;;;;;;;;5031708;28;20053;-66
2022/08/30 02:04:50;;;;;;;8.80;6.07;;;;;;;;;;5014568;28;20056;-67
2022/08/30 02:07:17;;;;;;;6.68;6.07;;;;;;;;;;5031484;28;20057;-67
2022/08/30 02:09:43;;;;;;;7.15;5.85;;;;;;;;;;5032326;28;20511;-66
2022/08/30 02:12:11;;;;;;;10.02;5.95;;;;;;;;;;5035476;28;20133;-67
2022/08/30 02:14:38;;;;;;;6.50;5.80;;;;;;;;;;5035275;28;20072;-67
2022/08/30 02:17:06;;;;;;;8.63;6.55;;;;;;;;;;5035065;28;20045;-67
2022/08/30 02:19:33;;;;;;;10.95;6.78;;;;;;;;;;5034718;28;20059;-67
2022/08/30 02:22:00;;;;;;;8.70;6.60;;;;;;;;;;5034892;28;20053;-66
2022/08/30 02:24:26;;;;;;;7.10;6.40;;;;;;;;;;5034794;28;20480;-66
2022/08/30 02:26:53;;;;;;;7.22;6.45;;;;;;;;;;5035219;28;20049;-67
2022/08/30 02:29:21;;;;;;;8.38;7.53;;;;;;;;;;5034838;28;20464;-67
2022/08/30 02:31:47;;;;;;;10.18;7.30;;;;;;;;;;5034805;28;20049;-66
2022/08/30 02:34:14;;;;;;;10.35;6.80;;;;;;;;;;5034746;28;20050;-67
2022/08/30 02:36:41;;;;;;;8.15;7.32;;;;;;;;;;5034723;28;20300;-66
2022/08/30 02:39:09;;;;;;;9.43;6.80;;;;;;;;;;5034739;28;20053;-66
2022/08/30 02:41:37;;;;;;;10.85;7.43;;;;;;;;;;5034752;28;20050;-67
2022/08/30 02:44:04;;;;;;;9.02;7.30;;;;;;;;;;5034816;28;20045;-69
2022/08/30 02:46:31;;;;;;;8.35;6.80;;;;;;;;;;5034996;28;20058;-66
2022/08/30 02:49:00;;;;;;;9.68;7.07;;;;;;;;;;5034668;28;20133;-67
2022/08/30 02:51:46;;;;;;;9.05;7.57;;;;;;;;;;5034623;28;20053;-66
2022/08/30 02:54:18;;;;;;;9.40;7.40;;;;;;;;;;5034856;28;20053;-66
2022/08/30 02:56:46;;;;;;;12.40;8.00;;;;;;;;;;5034777;28;20053;-66
2022/08/30 02:59:14;;;;;;;8.70;7.28;;;;;;;;;;5034264;28;20056;-66
2022/08/30 03:01:40;;;;;;;12.00;7.85;;;;;;;;;;5034706;28;20053;-66
2022/08/30 03:04:08;;;;;;;7.60;6.88;;;;;;;;;;5034678;28;20053;-66
2022/08/30 03:06:35;;;;;;;8.45;7.57;;;;;;;;;;5034414;28;20050;-67
2022/08/30 03:09:01;;;;;;;9.85;8.23;;;;;;;;;;5034177;28;20050;-66
2022/08/30 03:11:28;;;;;;;10.35;8.32;;;;;;;;;;5016517;28;20574;-67
2022/08/30 03:13:55;;;;;;;10.13;7.55;;;;;;;;;;5034423;28;20115;-67
2022/08/30 03:16:22;;;;;;;9.30;7.72;;;;;;;;;;5034288;28;20504;-65
2022/08/30 03:18:48;;;;;;;9.00;7.50;;;;;;;;;;5034680;28;20398;-68
2022/08/30 03:21:15;;;;;;;13.15;8.48;;;;;;;;;;5033632;28;20049;-68
2022/08/30 03:23:42;;;;;;;7.82;7.03;;;;;;;;;;5034096;28;20061;-69
2022/08/30 03:26:11;;;;;;;10.00;7.70;;;;;;;;;;5034043;28;20459;-68
2022/08/30 03:28:38;;;;;;;9.70;7.75;;;;;;;;;;5016936;28;20049;-68
2022/08/30 03:31:04;;;;;;;9.63;7.85;;;;;;;;;;5034018;28;20052;-68
2022/08/30 03:33:31;;;;;;;9.63;7.65;;;;;;;;;;5033914;28;20057;-69
2022/08/30 03:35:58;;;;;;;10.05;7.97;;;;;;;;;;5034254;28;20050;-68
2022/08/30 03:38:24;;;;;;;9.38;7.75;;;;;;;;;;5033658;28;20064;-69
2022/08/30 03:40:51;;;;;;;8.15;7.22;;;;;;;;;;5033632;28;20060;-68
2022/08/30 03:43:18;;;;;;;11.23;7.65;;;;;;;;;;5033771;28;20464;-69
2022/08/30 03:45:44;;;;;;;11.57;8.02;;;;;;;;;;5034126;28;20049;-69
2022/08/30 03:48:11;;;;;;;10.13;8.00;;;;;;;;;;5033873;28;20049;-69
2022/08/30 03:50:39;;;;;;;10.20;7.93;;;;;;;;;;5033680;28;20083;-68
2022/08/30 03:53:06;;;;;;;9.63;8.20;;;;;;;;;;5034124;28;20104;-68
2022/08/30 03:55:33;;;;;;;10.27;8.05;;;;;;;;;;5033785;28;20060;-68
2022/08/30 03:57:59;;;;;;;13.18;8.35;;;;;;;;;;5033430;28;20049;-68
2022/08/30 04:00:26;;;;;;;9.15;7.40;;;;;;;;;;5033636;28;20053;-68
2022/08/30 04:02:53;;;;;;;10.07;7.88;;;;;;;;;;5033669;28;20056;-68
2022/08/30 04:05:19;;;;;;;10.35;8.27;;;;;;;;;;5033560;28;20045;-69
2022/08/30 04:07:46;;;;;;;10.95;8.70;;;;;;;;;;5033276;28;20053;-68
2022/08/30 04:10:13;;;;;;;8.77;7.88;;;;;;;;;;5033086;28;20049;-69
2022/08/30 04:12:39;;;;;;;10.05;8.60;;;;;;;;;;5033424;28;20049;-68
2022/08/30 04:15:09;;;;;;;10.68;8.32;;;;;;;;;;5033337;28;20042;-68
2022/08/30 04:17:35;;;;;;;10.05;7.68;;;;;;;;;;5033352;28;20049;-68
2022/08/30 04:20:02;;;;;;;10.70;8.35;;;;;;;;;;5032845;28;20049;-68
2022/08/30 04:22:29;;;;;;;10.18;8.23;;;;;;;;;;5033264;28;20067;-69
2022/08/30 04:24:56;;;;;;;10.32;9.15;;;;;;;;;;5015745;28;20101;-68
2022/08/30 04:27:22;;;;;;;11.57;7.93;;;;;;;;;;5015452;28;20444;-68
2022/08/30 04:29:49;;;;;;;8.88;7.80;;;;;;;;;;5032820;28;20053;-69
2022/08/30 04:32:15;;;;;;;9.77;7.90;;;;;;;;;;5032749;28;20115;-68
2022/08/30 04:34:42;;;;;;;12.63;8.98;;;;;;;;;;5032869;28;20053;-68
2022/08/30 04:37:09;;;;;;;10.88;8.48;;;;;;;;;;5032541;28;20054;-68
2022/08/30 04:39:36;;;;;;;10.43;7.93;;;;;;;;;;5032442;28;20301;-68
2022/08/30 04:42:03;;;;;;;9.85;7.57;;;;;;;;;;5032917;28;20571;-68
2022/08/30 04:44:30;;;;;;;8.90;8.00;;;;;;;;;;5032965;28;20050;-69
2022/08/30 04:46:57;;;;;;;8.82;7.88;;;;;;;;;;5032702;28;20755;-69
2022/08/30 04:49:24;;;;;;;13.35;7.90;;;;;;;;;;5032273;28;20060;-68
2022/08/30 04:51:51;;;;;;;9.55;7.93;;;;;;;;;;5032976;28;20417;-68
2022/08/30 04:54:17;;;;;;;12.23;7.72;;;;;;;;;;5032628;28;20053;-68
2022/08/30 04:56:44;;;;;;;10.43;7.97;;;;;;;;;;5031324;28;20056;-69
2022/08/30 04:59:10;;;;;;;11.60;8.30;;;;;;;;;;5032356;28;20104;-69
2022/08/30 05:01:37;;;;;;;10.48;8.50;;;;;;;;;;5032544;28;20452;-68
2022/08/30 05:04:12;;;;;;;9.90;8.68;;;;;;;;;;5032399;28;20061;-68
2022/08/30 05:06:39;;;;;;;10.02;8.38;;;;;;;;;;5032490;28;20456;-67
2022/08/30 05:09:05;;;;;;;11.15;7.68;;;;;;;;;;5032365;28;20052;-69
2022/08/30 05:11:32;;;;;;;11.63;8.02;;;;;;;;;;5032118;28;20463;-68
2022/08/30 05:13:58;;;;;;;8.77;7.55;;;;;;;;;;5033511;28;20056;-68
2022/08/30 05:16:25;;;;;;;12.05;8.40;;;;;;;;;;5033213;28;20045;-68
2022/08/30 05:18:53;;;;;;;9.27;7.97;;;;;;;;;;5014703;28;20049;-68
2022/08/30 05:21:22;;;;;;;10.00;7.80;;;;;;;;;;5032392;28;20066;-68
2022/08/30 05:23:49;;;;;;;8.75;7.57;;;;;;;;;;5032215;28;20053;-68
2022/08/30 05:26:24;;;;;;;12.88;7.07;;;;;;;;;;5032732;28;20454;-68
2022/08/30 05:28:51;;;;;;;8.00;7.20;;;;;;;;;;5032499;28;20448;-68
2022/08/30 05:31:28;;;;;;;9.75;7.47;;;;;;;;;;5032115;28;20065;-68
2022/08/30 05:33:55;;;;;;;9.23;7.00;;;;;;;;;;5032489;28;20045;-69
2022/08/30 05:36:23;;;;;;;15.60;7.78;;;;;;;;;;5032432;28;20463;-69
2022/08/30 05:38:50;;;;;;;9.07;7.07;;;;;;;;;;5042490;28;20049;-69
2022/08/30 05:41:18;;;;;;;11.43;7.13;;;;;;;;;;5046428;28;20128;-69
2022/08/30 05:43:45;;;;;;;8.05;7.13;;;;;;;;;;5047191;28;20053;-69
2022/08/30 05:46:13;;;;;;;10.02;7.18;;;;;;;;;;5049874;28;20049;-69
2022/08/30 05:48:40;;;;;;;9.77;7.22;;;;;;;;;;5049546;28;20060;-69
2022/08/30 05:51:11;;;;;;;11.15;7.70;;;;;;;;;;5044176;28;20060;-69
2022/08/30 05:53:38;;;;;;;13.95;7.85;;;;;;;;;;5018584;28;20049;-69
2022/08/30 05:56:08;;;;;;;10.38;7.18;;;;;;;;;;5035943;28;20057;-69
2022/08/30 05:58:35;;;;;;;9.60;7.13;;;;;;;;;;5035652;28;20049;-69
2022/08/30 06:01:03;;;;;;;9.23;7.60;;;;;;;;;;5035543;28;20056;-69
2022/08/30 06:03:31;;;;;;;10.30;7.70;;;;;;;;;;5035524;28;20087;-70
2022/08/30 06:05:59;;;;;;;10.00;7.47;;;;;;;;;;5035727;28;20056;-68
2022/08/30 06:08:25;;;;;;;10.02;7.70;;;;;;;;;;5036356;28;20412;-69
2022/08/30 06:10:52;;;;;;;9.73;8.10;;;;;;;;;;5035221;28;20576;-69
2022/08/30 06:13:19;;;;;;;9.35;7.10;;;;;;;;;;5035876;28;20049;-69
2022/08/30 06:15:45;;;;;;;9.13;6.70;;;;;;;;;;5036048;28;20041;-69
2022/08/30 06:18:12;;;;;;;10.43;7.55;;;;;;;;;;5035322;28;20045;-69
2022/08/30 06:20:43;;;;;;;10.68;7.18;;;;;;;;;;5035197;28;20053;-69
2022/08/30 06:23:10;;;;;;;11.15;7.10;;;;;;;;;;5017991;28;20053;-69
2022/08/30 06:25:37;;;;;;;10.38;7.30;;;;;;;;;;5035307;28;20504;-68
2022/08/30 06:28:08;;;;;;;12.52;8.63;;;;;;;;;;5035220;28;20072;-68
2022/08/30 06:30:35;;;;;;;9.70;7.43;;;;;;;;;;5035022;28;20416;-68
2022/08/30 06:33:01;;;;;;;12.07;7.80;;;;;;;;;;5035210;28;20050;-68
2022/08/30 06:35:28;;;;;;;12.93;8.55;;;;;;;;;;5035022;28;20053;-68
2022/08/30 06:38:01;;;;;;;9.88;7.90;;;;;;;;;;5035098;28;20272;-69
2022/08/30 06:40:27;;;;;;;9.30;6.95;;;;;;;;;;5035004;28;20049;-68
2022/08/30 06:42:55;;;;;;;10.05;7.93;;;;;;;;;;5035133;28;20085;-68
2022/08/30 06:45:21;;;;;;;8.93;6.93;;;;;;;;;;5034939;28;20111;-68
2022/08/30 06:47:48;;;;;;;9.50;7.32;;;;;;;;;;5034654;28;20497;-68
2022/08/30 06:50:16;;;;;;;9.13;6.70;;;;;;;;;;5017321;28;20500;-68
2022/08/30 06:52:43;;;;;;;9.05;6.50;;;;;;;;;;5035127;28;20084;-68
2022/08/30 06:55:14;;;;;;;10.77;7.05;;;;;;;;;;5034845;28;20049;-68
2022/08/30 06:57:40;;;;;;;10.88;6.15;;;;;;;;;;5042740;28;20029;-68
2022/08/30 07:00:09;;;;;;;8.32;5.72;;;;;;;;;;5043492;28;20072;-68
2022/08/30 07:02:36;;;;;;;9.05;5.43;;;;;;;;;;5035290;28;20049;-68
2022/08/30 07:05:04;;;;;;;6.72;5.38;;;;;;;;;;5034447;28;20053;-68
2022/08/30 07:07:31;;;;;;;9.65;5.10;;;;;;;;;;5034406;28;20045;-66
2022/08/30 07:09:58;;;;;;;8.77;4.78;;;;;;;;;;5033918;28;20049;-67
2022/08/30 07:12:24;;;;;;;7.50;5.03;;;;;;;;;;5034268;28;20057;-67
2022/08/30 07:14:51;;;;;;;6.93;4.82;;;;;;;;;;5034172;28;20073;-66
2022/08/30 07:20:03;;;;;;;7.82;5.10;;;;;;;;;;5034080;28;20057;-66
2022/08/30 07:22:32;;;;;;;6.38;4.68;;;;;;;;;;5034114;28;20500;-66
2022/08/30 07:24:58;;;;;;;7.10;5.20;;;;;;;;;;5033817;28;20045;-66
2022/08/30 07:27:25;;;;;;;7.28;4.95;;;;;;;;;;5033835;28;20471;-66
2022/08/30 07:29:52;;;;;;;6.55;4.43;;;;;;;;;;5033480;28;20053;-67
2022/08/30 07:32:18;;;;;;;5.28;4.35;;;;;;;;;;5034047;28;20049;-67
2022/08/30 07:34:45;;;;;;;5.25;4.05;;;;;;;;;;5033911;28;20049;-67
2022/08/30 07:37:16;;;;;;;7.15;4.40;;;;;;;;;;5034042;28;20049;-69
2022/08/30 07:39:44;;;;;;;4.90;4.38;;;;;;;;;;5033282;28;20519;-66
2022/08/30 07:42:14;;;;;;;5.72;4.03;;;;;;;;;;5033616;28;20132;-66
2022/08/30 07:44:40;;;;;;;4.95;4.07;;;;;;;;;;5033959;28;20075;-66
2022/08/30 07:47:07;;;;;;;8.95;4.47;;;;;;;;;;5033773;28;20143;-66
2022/08/30 07:49:34;;;;;;;4.97;4.38;;;;;;;;;;5033315;28;20049;-67
2022/08/30 07:52:00;;;;;;;8.35;4.07;;;;;;;;;;5015719;28;20554;-68
2022/08/30 07:54:27;;;;;;;7.00;4.70;;;;;;;;;;5033404;28;20072;-66
2022/08/30 07:56:54;;;;;;;7.22;3.90;;;;;;;;;;5033294;28;20412;-67
2022/08/30 07:59:22;;;;;;;6.50;3.95;;;;;;;;;;5033023;28;20421;-69
2022/08/30 08:01:48;;;;;;;6.28;3.88;;;;;;;;;;5033649;28;20053;-68
2022/08/30 08:04:18;;;;;;;7.93;5.25;;;;;;;;;;5033458;28;20059;-68
2022/08/30 08:06:44;;;;;;;5.82;4.20;;;;;;;;;;5033155;28;20096;-68
2022/08/30 08:09:11;;;;;;;8.38;4.07;;;;;;;;;;5032695;28;20058;-66
2022/08/30 08:11:40;;;;;;;5.30;4.05;;;;;;;;;;5015847;28;20053;-66
2022/08/30 08:14:07;;;;;;;5.30;4.20;;;;;;;;;;5033207;28;20146;-66
2022/08/30 08:16:35;;;;;;;4.97;4.10;;;;;;;;;;5015658;28;20424;-66
2022/08/30 08:19:03;;;;;;;4.28;3.75;;;;;;;;;;5032760;28;20584;-66
2022/08/30 08:21:29;;;;;;;4.55;3.97;;;;;;;;;;5033092;28;20049;-66
2022/08/30 08:23:56;;;;;;;5.45;4.25;;;;;;;;;;5032713;28;20053;-67
2022/08/30 08:26:23;;;;;;;6.00;4.07;;;;;;;;;;5032718;28;20119;-68
2022/08/30 08:28:49;;;;;;;5.03;3.97;;;;;;;;;;5032736;28;20402;-67
2022/08/30 08:31:22;;;;;;;5.95;4.40;;;;;;;;;;5032564;28;20056;-66
2022/08/30 08:33:58;;;;;;;5.65;3.80;;;;;;;;;;5032616;28;20072;-66
2022/08/30 08:36:29;;;;;;;6.20;4.20;;;;;;;;;;5032823;28;20053;-66
2022/08/30 08:38:55;;;;;;;5.38;4.40;;;;;;;;;;5032454;28;20050;-68
2022/08/30 08:41:47;;;;;;;5.10;4.60;;;;;;;;;;5032668;28;20121;-68
2022/08/30 08:44:22;;;;;;;5.13;4.53;;;;;;;;;;5032774;28;20053;-68
2022/08/30 08:46:56;;;;;;;8.38;4.80;;;;;;;;;;5032532;28;20099;-69
2022/08/30 08:49:22;;;;;;;7.15;4.18;;;;;;;;;;5015131;28;20049;-69
2022/08/30 08:55:07;;;;;;;5.20;4.32;;;;;;;;;;5032741;28;20049;-69
2022/08/30 08:57:34;;;;;;;5.38;4.20;;;;;;;;;;5028863;28;20057;-69
2022/08/30 09:00:04;;;;;;;5.47;4.15;;;;;;;;;;5032382;28;20111;-69
2022/08/30 09:02:56;;;;;;;5.28;4.57;;;;;;;;;;5033065;28;20045;-69
2022/08/30 09:05:25;;;;;;;5.00;4.38;;;;;;;;;;5032473;28;20057;-68
2022/08/30 09:08:01;;;;;;;6.15;4.18;;;;;;;;;;4998533;28;20046;-69
2022/08/30 09:10:33;;;;;;;6.22;4.43;;;;;;;;;;5015730;28;20053;-69
2022/08/30 09:13:16;;;;;;;6.15;4.20;;;;;;;;;;5003142;28;20053;-69
2022/08/30 09:15:45;;;;;;;6.18;4.30;;;;;;;;;;5032408;28;20580;-69
2022/08/30 09:18:17;;;;;;;4.90;4.28;;;;;;;;;;5032625;28;20500;-68
2022/08/30 09:20:50;;;;;;;6.97;4.05;;;;;;;;;;5031472;28;20497;-68
2022/08/30 09:23:26;;;;;;;5.10;4.43;;;;;;;;;;5015169;28;20050;-69
2022/08/30 09:26:01;;;;;;;4.80;4.15;;;;;;;;;;5015021;28;20046;-69
2022/08/30 09:28:44;;;;;;;5.28;4.10;;;;;;;;;;5032324;28;20103;-69
2022/08/30 09:31:20;;;;;;;5.22;4.38;;;;;;;;;;5032384;28;20049;-71
2022/08/30 09:34:04;;;;;;;5.25;4.50;;;;;;;;;;5014905;28;20053;-69
2022/08/30 09:36:45;;;;;;;5.00;4.50;;;;;;;;;;5015875;28;20053;-69
2022/08/30 09:39:28;;;;;;;6.18;4.72;;;;;;;;;;5014255;28;20050;-69
2022/08/30 09:42:11;;;;;;;5.32;3.80;;;;;;;;;;5014545;28;20046;-68
2022/08/30 09:44:38;;;;;;;5.32;4.32;;;;;;;;;;4998900;28;20056;-69
2022/08/30 09:47:05;;;;;;;8.27;3.95;;;;;;;;;;5032277;28;20049;-69
2022/08/30 09:49:36;;;;;;;6.70;4.25;;;;;;;;;;4998068;28;20060;-69
2022/08/30 09:52:16;;;;;;;5.53;4.32;;;;;;;;;;5031933;28;20056;-69
2022/08/30 09:54:47;;;;;;;5.30;3.85;;;;;;;;;;5031979;28;20140;-69
2022/08/30 09:57:33;;;;;;;6.28;3.60;;;;;;;;;;5031869;28;20057;-69
2022/08/30 10:00:07;;;;;;;7.63;4.40;;;;;;;;;;4999510;28;20069;-69
2022/08/30 10:02:47;;;;;;;4.22;3.83;;;;;;;;;;4999857;28;20644;-68
2022/08/30 10:05:43;;;;;;;8.02;4.65;;;;;;;;;;5014362;28;20053;-69
2022/08/30 10:08:30;;;;;;;4.22;3.80;;;;;;;;;;5027923;28;20053;-68
2022/08/30 10:11:00;;;;;;;5.40;3.80;;;;;;;;;;5031984;28;20092;-69
2022/08/30 10:13:32;;;;;;;5.30;4.80;;;;;;;;;;5031810;28;20107;-69
2022/08/30 10:16:19;;;;;;;;;;;;;;;;;;5014890;28;20046;-68
2022/08/30 10:19:02;;;;;;;4.85;3.88;;;;;;;;;;5000692;28;19947;-68
2022/08/30 10:21:54;;;;;;;4.88;3.88;;;;;;;;;;5014477;28;20057;-68
2022/08/30 10:24:24;;;;;;;3.92;3.47;;;;;;;;;;5017054;28;20111;-68
2022/08/30 10:27:13;;;;;;;5.82;4.18;;;;;;;;;;4999014;28;20046;-68
2022/08/30 10:29:50;;;;;;;4.25;3.60;;;;;;;;;;5013866;28;20049;-68
2022/08/30 10:32:20;;;;;;;3.80;3.40;;;;;;;;;;5001381;28;20049;-68
2022/08/30 10:34:53;;;;;;;5.07;3.45;;;;;;;;;;5035028;28;20045;-68
2022/08/30 10:37:24;;;;;;;3.50;3.20;;;;;;;;;;5017386;28;20527;-68
2022/08/30 10:41:11;;;;;;;6.00;3.65;;;;;;;;;;5034621;28;20057;-69
2022/08/30 10:42:48;;;;;;;5.15;3.65;;;;;;;;;;5007054;28;20492;-68
2022/08/30 10:45:15;;;;;;;4.55;3.72;;;;;;;;;;5034776;28;20049;-69
2022/08/30 10:47:48;;;;;;;4.47;3.83;;;;;;;;;;5034826;28;20050;-69
2022/08/30 10:50:20;;;;;;;5.10;3.78;;;;;;;;;;5034922;28;20049;-66
2022/08/30 10:53:14;;;;;;;6.17;3.60;;;;;;;;;;5001784;28;20107;-68
2022/08/30 10:55:45;;;;;;;4.22;3.42;;;;;;;;;;5019857;28;20338;-68
2022/08/30 10:58:16;;;;;;;4.88;3.40;;;;;;;;;;5001915;28;20042;-69
2022/08/30 11:01:02;;;;;;;4.75;3.42;;;;;;;;;;5034487;28;20060;-66
2022/08/30 11:04:23;;;;;;;4.00;3.60;;;;;;;;;;5034209;28;20512;-67
2022/08/30 11:07:09;;;;;;;4.03;3.55;;;;;;;;;;4960242;28;20049;-67
2022/08/30 11:09:58;;;;;;;4.30;3.83;;;;;;;;;;5016773;28;20053;-67
2022/08/30 11:12:37;;;;;;;4.05;3.63;;;;;;;;;;5034200;28;20107;-67
2022/08/30 11:15:18;;;;;;;4.82;3.63;;;;;;;;;;5002482;28;20063;-68
2022/08/30 11:18:08;;;;;;;4.63;4.00;;;;;;;;;;5001933;28;20489;-69
2022/08/30 11:20:45;;;;;;;5.15;3.60;;;;;;;;;;5033921;28;20467;-66
2022/08/30 11:23:17;;;;;;;6.55;3.30;;;;;;;;;;5033801;28;20056;-66
2022/08/30 11:26:02;;;;;;;4.50;3.45;;;;;;;;;;5034105;28;20064;-66
2022/08/30 11:28:35;;;;;;;3.70;3.30;;;;;;;;;;5033540;28;20046;-68
2022/08/30 11:31:05;;;;;;;6.97;3.72;;;;;;;;;;5033922;28;20053;-66
2022/08/30 11:33:48;;;;;;;3.65;3.35;;;;;;;;;;5016269;28;20049;-67
2022/08/30 11:36:27;;;;;;;;;;;;;;;;;;5016958;28;20058;-67
2022/08/30 11:38:53;;;;;;;3.92;3.50;;;;;;;;;;5033464;28;20430;-67
2022/08/30 11:41:33;;;;;;;3.55;3.25;;;;;;;;;;5016228;28;20053;-67
2022/08/30 11:44:21;;;;;;;6.28;4.47;;;;;;;;;;5033241;28;20080;-67
2022/08/30 11:46:49;;;;;;;5.03;3.78;;;;;;;;;;5033630;28;20132;-67
2022/08/30 11:49:18;;;;;;;10.07;3.53;;;;;;;;;;5015481;28;20049;-67
2022/08/30 11:51:54;;;;;;;4.32;3.75;;;;;;;;;;5033521;28;20136;-66
2022/08/30 11:54:46;;;;;;;7.10;3.25;;;;;;;;;;5033507;28;20053;-66
2022/08/30 11:57:27;;;;;;;4.70;3.58;;;;;;;;;;5033294;28;20052;-67
2022/08/30 11:59:56;;;;;;;3.90;3.60;;;;;;;;;;5033058;28;20410;-68
2022/08/30 12:02:45;;;;;;;4.63;3.83;;;;;;;;;;5033288;28;20053;-67
2022/08/30 12:05:37;;;;;;;4.60;4.20;;;;;;;;;;5016483;28;20045;-68
2022/08/30 12:08:19;;;;;;;6.63;3.67;;;;;;;;;;5032925;28;20072;-68
2022/08/30 12:10:50;;;;;;;3.45;3.15;;;;;;;;;;5032780;28;20049;-67
2022/08/30 12:13:32;;;;;;;4.28;3.88;;;;;;;;;;5015566;28;20045;-66
2022/08/30 12:16:04;;;;;;;6.05;4.15;;;;;;;;;;5033015;28;20100;-68
2022/08/30 12:18:52;;;;;;;6.10;3.50;;;;;;;;;;5016343;28;20053;-67
2022/08/30 12:21:20;;;;;;;3.80;3.50;;;;;;;;;;5000222;28;20575;-68
2022/08/30 12:23:51;;;;;;;3.90;3.60;;;;;;;;;;5033207;28;20045;-67
2022/08/30 12:26:24;;;;;;;5.15;3.70;;;;;;;;;;5015251;28;20518;-67
2022/08/30 12:29:06;;;;;;;4.53;3.47;;;;;;;;;;5032386;28;20056;-69
2022/08/30 12:31:40;;;;;;;5.68;3.10;;;;;;;;;;5032929;28;20061;-68
2022/08/30 12:34:08;;;;;;;4.07;3.67;;;;;;;;;;5015745;28;20075;-69
2022/08/30 12:36:39;;;;;;;3.50;3.20;;;;;;;;;;4999620;28;20061;-69
2022/08/30 12:39:07;;;;;;;3.60;3.38;;;;;;;;;;5032347;28;20496;-68
2022/08/30 12:41:35;;;;;;;4.10;3.33;;;;;;;;;;5032792;28;20119;-68
2022/08/30 12:44:22;;;;;;;6.32;3.65;;;;;;;;;;5032642;28;20523;-68
2022/08/30 12:46:51;;;;;;;4.35;3.95;;;;;;;;;;5000239;28;20096;-68
2022/08/30 12:49:26;;;;;;;4.90;4.40;;;;;;;;;;5015773;28;20053;-67
2022/08/30 12:51:53;;;;;;;4.60;3.65;;;;;;;;;;4999204;28;20053;-67
2022/08/30 12:54:26;;;;;;;3.90;3.50;;;;;;;;;;4998834;28;20401;-67
2022/08/30 12:56:55;;;;;;;3.97;3.40;;;;;;;;;;5015820;28;20042;-67
2022/08/30 12:59:41;;;;;;;3.45;3.15;;;;;;;;;;5032404;28;20493;-67
2022/08/30 13:02:21;;;;;;;3.58;3.28;;;;;;;;;;5032642;28;20049;-67
2022/08/30 13:04:49;;;;;;;3.57;2.93;;;;;;;;;;5015063;28;20128;-67
2022/08/30 13:07:33;;;;;;;4.47;3.60;;;;;;;;;;5014717;28;20054;-67
2022/08/30 13:10:14;;;;;;;4.20;3.20;;;;;;;;;;5032162;28;20127;-66
2022/08/30 13:13:03;;;;;;;3.28;2.97;;;;;;;;;;5000981;28;20107;-67
2022/08/30 13:15:32;;;;;;;3.35;3.15;;;;;;;;;;5032331;28;20487;-67
2022/08/30 13:18:14;;;;;;;3.53;3.22;;;;;;;;;;5031971;28;20045;-67
2022/08/30 13:20:45;;;;;;;4.15;3.10;;;;;;;;;;5032275;28;20484;-68
2022/08/30 13:23:21;;;;;;;3.85;3.22;;;;;;;;;;5015017;28;20065;-68
2022/08/30 13:25:47;;;;;;;4.03;3.03;;;;;;;;;;5032000;28;20195;-68
2022/08/30 13:28:15;;;;;;;3.05;2.85;;;;;;;;;;5031905;28;20425;-68
2022/08/30 13:30:42;;;;;;;3.80;3.15;;;;;;;;;;5031885;28;20107;-69
2022/08/30 13:33:10;;;;;;;4.47;3.63;;;;;;;;;;5032174;28;20474;-68
2022/08/30 13:35:37;;;;;;;3.33;3.03;;;;;;;;;;5032179;28;20053;-68
2022/08/30 13:38:04;;;;;;;3.28;2.78;;;;;;;;;;5014846;28;20489;-68
2022/08/30 13:40:31;;;;;;;4.82;3.60;;;;;;;;;;5031815;28;20083;-68
2022/08/30 13:42:58;;;;;;;3.47;3.10;;;;;;;;;;5031891;28;20374;-68
2022/08/30 13:45:25;;;;;;;3.95;3.25;;;;;;;;;;5032274;28;20435;-68
2022/08/30 13:48:09;;;;;;;4.35;2.90;;;;;;;;;;5031770;28;20401;-67
2022/08/30 13:50:36;;;;;;;3.45;3.15;;;;;;;;;;5014390;28;20148;-68
2022/08/30 13:53:03;;;;;;;3.42;3.13;;;;;;;;;;5031882;28;20099;-67
2022/08/30 13:55:29;;;;;;;3.58;3.28;;;;;;;;;;5031749;28;20386;-67
2022/08/30 13:57:56;;;;;;;4.25;3.45;;;;;;;;;;4997796;28;20418;-67
2022/08/30 14:00:24;;;;;;;4.82;4.18;;;;;;;;;;5031760;28;20131;-67
2022/08/30 14:02:54;;;;;;;4.60;3.30;;;;;;;;;;5031708;28;20053;-67
2022/08/30 14:05:42;;;;;;;4.88;3.50;;;;;;;;;;5032197;28;20050;-68
2022/08/30 14:08:29;;;;;;;4.43;3.53;;;;;;;;;;5035166;28;20049;-68
2022/08/30 14:11:18;;;;;;;3.50;2.83;;;;;;;;;;5035540;28;20058;-67
2022/08/30 14:13:47;;;;;;;3.60;3.30;;;;;;;;;;5035505;28;20072;-68
2022/08/30 14:16:36;;;;;;;4.00;3.15;;;;;;;;;;5035195;28;20054;-68
2022/08/30 14:19:03;;;;;;;2.80;2.60;;;;;;;;;;5035336;28;20054;-67
2022/08/30 14:21:31;;;;;;;3.75;3.20;;;;;;;;;;5035428;28;20467;-67
2022/08/30 14:23:58;;;;;;;7.43;3.22;;;;;;;;;;5035184;28;20052;-68
2022/08/30 14:26:30;;;;;;;4.70;3.08;;;;;;;;;;5035461;28;20053;-67
2022/08/30 14:29:03;;;;;;;3.78;3.30;;;;;;;;;;5035128;28;20051;-67
2022/08/30 14:31:30;;;;;;;5.40;3.28;;;;;;;;;;5035212;28;20049;-68
2022/08/30 14:33:59;;;;;;;4.70;3.70;;;;;;;;;;5035180;28;20424;-67
2022/08/30 14:36:26;;;;;;;3.67;3.38;;;;;;;;;;5035071;28;20053;-68
2022/08/30 14:38:53;;;;;;;4.68;3.40;;;;;;;;;;5034528;28;20052;-67
2022/08/30 14:41:19;;;;;;;3.58;3.28;;;;;;;;;;5034991;28;20357;-67
2022/08/30 14:43:46;;;;;;;6.18;3.85;;;;;;;;;;5035155;28;20053;-67
2022/08/30 14:46:13;;;;;;;3.38;3.08;;;;;;;;;;5034972;28;20045;-68
2022/08/30 14:48:40;;;;;;;6.30;4.03;;;;;;;;;;5034649;28;20054;-67
2022/08/30 14:51:14;;;;;;;8.57;3.25;;;;;;;;;;5034968;28;20050;-68
2022/08/30 14:53:40;;;;;;;4.97;3.45;;;;;;;;;;5034517;28;20053;-67
2022/08/30 14:56:09;;;;;;;3.75;3.45;;;;;;;;;;5034836;28;20079;-68
2022/08/30 14:58:36;;;;;;;3.58;3.28;;;;;;;;;;5034634;28;20049;-67
2022/08/30 15:01:10;;;;;;;3.78;3.47;;;;;;;;;;5034516;28;20100;-68
2022/08/30 15:03:39;;;;;;;5.35;3.55;;;;;;;;;;5034734;28;20054;-67
2022/08/30 15:06:06;;;;;;;3.90;3.47;;;;;;;;;;5034502;28;20499;-67
2022/08/30 15:08:34;;;;;;;3.63;3.33;;;;;;;;;;5034342;28;20412;-67